Time;durP1;ratioP1;P1;durP2;ratioP2;P2;SDS_P1;SDS_P2;PMS_P1;PMS_P2;Temp;Humidity;BMP_temperature;BMP_pressure;BME280_temperature;BME280_humidity;BME280_pressure;Samples;Min_cycle;Max_cycle;Signal;HPM_P1;HPM_P2
2023/05/22 00:00:56;;;;;;;7.25;6.18;;;18.30;56.70;;;;;;5020504;28;20035;-68
2023/05/22 00:03:23;;;;;;;8.30;6.05;;;18.30;56.80;;;;;;5019970;28;20030;-66
2023/05/22 00:05:49;;;;;;;8.52;6.03;;;18.30;56.80;;;;;;5017848;28;20056;-67
2023/05/22 00:08:15;;;;;;;9.73;6.57;;;18.30;57.00;;;;;;5021808;28;20014;-69
2023/05/22 00:10:41;;;;;;;10.55;6.28;;;18.20;57.00;;;;;;5016107;28;20094;-68
2023/05/22 00:13:06;;;;;;;8.60;6.38;;;18.20;57.00;;;;;;5023757;28;20080;-68
2023/05/22 00:15:32;;;;;;;7.95;6.13;;;18.20;57.00;;;;;;5017728;28;20037;-69
2023/05/22 00:17:58;;;;;;;9.80;6.70;;;18.10;57.10;;;;;;5016726;28;20022;-67
2023/05/22 00:20:25;;;;;;;6.90;6.07;;;18.10;57.30;;;;;;5018717;28;20045;-68
2023/05/22 00:22:51;;;;;;;10.30;6.35;;;18.10;57.30;;;;;;5020069;28;20026;-66
2023/05/22 00:25:18;;;;;;;8.98;6.88;;;18.00;57.30;;;;;;5018766;28;20030;-67
2023/05/22 00:27:44;;;;;;;9.13;6.72;;;18.00;57.40;;;;;;5018751;28;20386;-67
2023/05/22 00:30:10;;;;;;;9.63;6.63;;;17.90;57.40;;;;;;5019391;28;20049;-68
2023/05/22 00:32:36;;;;;;;9.02;6.55;;;17.90;57.40;;;;;;5019583;28;20369;-67
2023/05/22 00:35:02;;;;;;;11.45;6.80;;;17.90;57.50;;;;;;5016372;28;20034;-68
2023/05/22 00:37:28;;;;;;;12.93;6.43;;;17.80;57.50;;;;;;5017887;28;20060;-68
2023/05/22 00:39:54;;;;;;;7.60;6.32;;;17.80;57.60;;;;;;5022612;28;20057;-66
2023/05/22 00:42:20;;;;;;;8.50;6.50;;;17.70;57.70;;;;;;5015592;28;20038;-67
2023/05/22 00:44:47;;;;;;;10.30;6.68;;;17.70;57.80;;;;;;5026099;28;20053;-66
2023/05/22 00:47:13;;;;;;;9.25;7.07;;;17.70;57.90;;;;;;5036803;28;20017;-67
2023/05/22 00:49:39;;;;;;;8.13;6.45;;;17.70;58.00;;;;;;5041124;28;20061;-67
2023/05/22 00:52:06;;;;;;;8.00;6.53;;;17.60;58.10;;;;;;5039241;28;20175;-68
2023/05/22 00:54:33;;;;;;;10.57;6.80;;;17.60;58.20;;;;;;5024786;28;20029;-68
2023/05/22 00:57:00;;;;;;;8.45;6.60;;;17.60;58.10;;;;;;5038091;28;20101;-68
2023/05/22 00:59:26;;;;;;;8.60;6.80;;;17.50;58.20;;;;;;5040100;28;20090;-67
2023/05/22 01:01:53;;;;;;;8.82;6.72;;;17.50;58.30;;;;;;5038573;28;20026;-68
2023/05/22 01:04:19;;;;;;;9.95;6.80;;;17.50;58.20;;;;;;5038381;28;20117;-68
2023/05/22 01:06:46;;;;;;;7.95;7.05;;;17.50;58.20;;;;;;5021778;28;20036;-67
2023/05/22 01:09:13;;;;;;;11.23;6.60;;;17.40;58.20;;;;;;5041008;28;20045;-67
2023/05/22 01:12:09;;;;;;;7.88;6.35;;;17.30;58.30;;;;;;5038200;28;20479;-67
2023/05/22 01:14:54;;;;;;;9.57;6.60;;;17.30;59.20;;;;;;5029800;28;20099;-67
2023/05/22 01:17:36;;;;;;;8.90;6.93;;;17.30;59.10;;;;;;5037297;28;20029;-67
2023/05/22 01:20:09;;;;;;;16.92;6.47;;;17.20;59.00;;;;;;5033256;28;20037;-67
2023/05/22 01:22:39;;;;;;;6.93;6.05;;;17.20;59.10;;;;;;5036547;28;20101;-69
2023/05/22 01:25:27;;;;;;;8.63;6.63;;;17.10;58.60;;;;;;5034804;28;20551;-68
2023/05/22 01:28:13;;;;;;;10.82;7.35;;;17.10;58.90;;;;;;5038961;28;20024;-67
2023/05/22 01:31:15;;;;;;;10.32;6.75;;;17.10;58.90;;;;;;5037156;28;20044;-66
2023/05/22 01:33:59;;;;;;;9.13;6.13;;;17.10;59.70;;;;;;5037882;28;20029;-66
2023/05/22 01:36:36;;;;;;;7.20;6.40;;;17.00;59.50;;;;;;5024653;28;20059;-67
2023/05/22 01:39:05;;;;;;;15.48;6.50;;;17.00;59.40;;;;;;5042569;28;20025;-67
2023/05/22 01:41:32;;;;;;;10.15;6.53;;;16.90;58.70;;;;;;5038574;28;20029;-67
2023/05/22 01:43:59;;;;;;;10.05;6.90;;;16.90;58.80;;;;;;5042106;28;20042;-68
2023/05/22 01:46:29;;;;;;;9.50;6.75;;;16.90;58.90;;;;;;5042848;28;20042;-66
2023/05/22 01:48:55;;;;;;;9.57;6.82;;;16.80;59.20;;;;;;5021445;28;20030;-67
2023/05/22 01:51:32;;;;;;;11.88;6.75;;;16.80;59.00;;;;;;5020750;28;20029;-67
2023/05/22 01:54:13;;;;;;;8.25;6.43;;;16.80;60.00;;;;;;5034113;28;20028;-66
2023/05/22 01:56:44;;;;;;;7.80;6.45;;;16.70;60.00;;;;;;5045295;28;20056;-66
2023/05/22 01:59:22;;;;;;;11.43;7.10;;;16.70;59.60;;;;;;5038274;28;20041;-66
2023/05/22 02:01:50;;;;;;;9.90;6.25;;;16.70;59.60;;;;;;5039272;28;20049;-66
2023/05/22 02:04:19;;;;;;;8.48;6.82;;;16.60;59.20;;;;;;5024301;28;20504;-67
2023/05/22 02:06:46;;;;;;;11.20;7.07;;;16.60;59.40;;;;;;5039721;28;20362;-68
2023/05/22 02:09:13;;;;;;;8.52;6.75;;;16.50;59.50;;;;;;5027872;28;20033;-67
2023/05/22 02:11:40;;;;;;;8.55;6.90;;;16.50;59.60;;;;;;5043369;28;20035;-67
2023/05/22 02:14:08;;;;;;;9.20;7.18;;;16.50;59.70;;;;;;5041454;28;20030;-67
2023/05/22 02:16:33;;;;;;;10.75;6.80;;;16.40;59.70;;;;;;5046350;28;20051;-68
2023/05/22 02:19:04;;;;;;;11.30;7.07;;;16.40;59.80;;;;;;5036683;28;20053;-67
2023/05/22 02:21:34;;;;;;;9.70;6.72;;;16.40;60.00;;;;;;5040031;28;20030;-66
2023/05/22 02:23:59;;;;;;;10.30;6.28;;;16.40;60.10;;;;;;5018668;28;20069;-67
2023/05/22 02:26:25;;;;;;;7.85;6.03;;;16.40;59.90;;;;;;5024004;28;20075;-67
2023/05/22 02:28:51;;;;;;;11.00;7.00;;;16.40;59.90;;;;;;5038621;28;20033;-67
2023/05/22 02:31:17;;;;;;;8.68;6.38;;;16.30;60.10;;;;;;5037323;28;20079;-69
2023/05/22 02:33:43;;;;;;;11.73;6.85;;;16.30;60.30;;;;;;5041402;28;20068;-67
2023/05/22 02:36:09;;;;;;;9.57;7.07;;;16.30;60.40;;;;;;5023751;28;20029;-68
2023/05/22 02:38:35;;;;;;;12.60;7.20;;;16.20;60.30;;;;;;5041951;28;20026;-67
2023/05/22 02:41:01;;;;;;;7.57;6.30;;;16.20;60.40;;;;;;4958486;28;20425;-66
2023/05/22 02:43:27;;;;;;;9.38;7.47;;;16.20;60.20;;;;;;5042186;28;20065;-68
2023/05/22 02:45:52;;;;;;;8.40;6.80;;;16.20;60.30;;;;;;5036927;28;20026;-67
2023/05/22 02:48:18;;;;;;;10.45;6.78;;;16.10;60.30;;;;;;5042141;28;20080;-66
2023/05/22 02:50:44;;;;;;;17.10;7.30;;;16.10;60.60;;;;;;5036040;28;20109;-66
2023/05/22 02:53:10;;;;;;;10.20;6.53;;;16.10;60.60;;;;;;5046588;28;20105;-67
2023/05/22 02:55:35;;;;;;;15.10;7.32;;;16.10;60.70;;;;;;5050826;28;20025;-67
2023/05/22 02:58:02;;;;;;;10.40;7.03;;;16.00;60.70;;;;;;5046274;28;20083;-68
2023/05/22 03:00:27;;;;;;;9.70;6.70;;;16.00;60.80;;;;;;5044337;28;20059;-67
2023/05/22 03:02:53;;;;;;;8.30;6.63;;;16.00;60.80;;;;;;5026106;28;20065;-67
2023/05/22 03:05:19;;;;;;;13.02;7.38;;;15.90;60.80;;;;;;5043844;28;20035;-68
2023/05/22 03:07:44;;;;;;;9.93;7.00;;;15.90;60.80;;;;;;5042527;28;20049;-68
2023/05/22 03:10:10;;;;;;;12.70;7.10;;;15.90;60.90;;;;;;5037079;28;20047;-67
2023/05/22 03:12:36;;;;;;;8.57;7.38;;;15.90;61.00;;;;;;5036434;28;21568;-67
2023/05/22 03:15:02;;;;;;;8.52;7.05;;;15.80;61.00;;;;;;5025050;28;20036;-66
2023/05/22 03:17:27;;;;;;;9.63;6.88;;;15.80;61.10;;;;;;5040825;28;20040;-67
2023/05/22 03:19:53;;;;;;;11.48;7.20;;;15.80;61.10;;;;;;5035082;28;20026;-67
2023/05/22 03:22:19;;;;;;;7.57;6.43;;;15.80;61.20;;;;;;5018640;28;20064;-67
2023/05/22 03:24:44;;;;;;;9.43;6.50;;;15.70;61.00;;;;;;5039715;28;20056;-66
2023/05/22 03:27:14;;;;;;;11.02;7.07;;;15.70;60.90;;;;;;5041118;28;20025;-68
2023/05/22 03:29:40;;;;;;;10.55;7.22;;;15.70;61.60;;;;;;5035934;28;20043;-66
2023/05/22 03:32:06;;;;;;;12.10;6.50;;;15.70;61.40;;;;;;5040152;28;20048;-66
2023/05/22 03:34:32;;;;;;;15.65;7.13;;;15.60;61.40;;;;;;5014971;28;20392;-67
2023/05/22 03:36:59;;;;;;;9.98;6.88;;;15.60;61.60;;;;;;5040184;28;20081;-68
2023/05/22 03:39:24;;;;;;;9.70;6.78;;;15.60;61.70;;;;;;5043477;28;20081;-67
2023/05/22 03:41:50;;;;;;;9.07;6.53;;;15.60;61.90;;;;;;5037541;28;20040;-67
2023/05/22 03:44:16;;;;;;;9.65;7.05;;;15.60;62.10;;;;;;5040082;28;20053;-67
2023/05/22 03:46:41;;;;;;;13.40;7.45;;;15.60;62.20;;;;;;5038506;28;20026;-67
2023/05/22 03:49:07;;;;;;;10.63;7.30;;;15.60;62.30;;;;;;5014843;28;20653;-66
2023/05/22 03:51:33;;;;;;;11.68;7.43;;;15.50;62.20;;;;;;5017628;28;20077;-67
2023/05/22 03:53:58;;;;;;;8.43;7.22;;;15.50;62.20;;;;;;5040538;28;20026;-67
2023/05/22 03:56:25;;;;;;;7.65;6.32;;;15.60;62.30;;;;;;5037852;28;20032;-67
2023/05/22 03:58:51;;;;;;;9.05;7.28;;;15.50;62.20;;;;;;5033083;28;20017;-67
2023/05/22 04:01:16;;;;;;;12.43;7.30;;;15.60;62.20;;;;;;5039561;28;20051;-67
2023/05/22 04:03:42;;;;;;;10.35;7.47;;;15.50;62.20;;;;;;5041241;28;20030;-68
2023/05/22 04:06:09;;;;;;;12.35;9.23;;;15.50;62.30;;;;;;5038915;28;20025;-67
2023/05/22 04:08:35;;;;;;;11.32;8.40;;;15.50;62.40;;;;;;5043393;28;20348;-67
2023/05/22 04:11:01;;;;;;;8.10;7.00;;;15.50;62.50;;;;;;5037590;28;20448;-67
2023/05/22 04:13:29;;;;;;;8.98;6.80;;;15.50;62.60;;;;;;5035824;28;20476;-67
2023/05/22 04:15:55;;;;;;;7.70;6.65;;;15.50;62.60;;;;;;5021677;28;20080;-67
2023/05/22 04:18:21;;;;;;;11.35;7.13;;;15.50;62.70;;;;;;5019086;28;20114;-67
2023/05/22 04:20:47;;;;;;;10.98;8.18;;;15.50;62.80;;;;;;5036363;28;20037;-67
2023/05/22 04:23:12;;;;;;;12.25;7.90;;;15.60;63.00;;;;;;5040276;28;20037;-68
2023/05/22 04:25:38;;;;;;;12.88;7.95;;;15.60;63.90;;;;;;5040493;28;20550;-67
2023/05/22 04:28:04;;;;;;;11.98;7.43;;;15.70;63.20;;;;;;5019246;28;20379;-67
2023/05/22 04:30:32;;;;;;;8.48;7.07;;;15.70;63.20;;;;;;5037446;28;20087;-67
2023/05/22 04:32:59;;;;;;;11.30;8.20;;;15.80;63.20;;;;;;5017091;28;20018;-68
2023/05/22 04:35:28;;;;;;;9.48;7.15;;;15.90;63.20;;;;;;5034913;28;20067;-67
2023/05/22 04:37:54;;;;;;;8.68;7.15;;;15.90;63.20;;;;;;5039274;28;20053;-67
2023/05/22 04:40:20;;;;;;;10.73;7.32;;;15.90;63.20;;;;;;5036185;28;20033;-68
2023/05/22 04:42:46;;;;;;;8.65;7.25;;;16.10;63.40;;;;;;5020708;28;20037;-66
2023/05/22 04:45:12;;;;;;;10.48;7.20;;;16.10;63.50;;;;;;5013482;28;20050;-67
2023/05/22 04:47:40;;;;;;;10.68;7.80;;;16.20;63.60;;;;;;5018926;28;20032;-66
2023/05/22 04:50:06;;;;;;;9.00;8.02;;;16.30;63.70;;;;;;5014188;28;20461;-68
2023/05/22 04:52:32;;;;;;;9.80;7.80;;;16.30;63.60;;;;;;5018408;28;20550;-68
2023/05/22 04:54:57;;;;;;;10.60;8.80;;;16.40;63.60;;;;;;5017219;28;20093;-66
2023/05/22 04:57:26;;;;;;;11.05;8.13;;;16.50;63.50;;;;;;5015863;28;20622;-67
2023/05/22 04:59:53;;;;;;;10.20;7.93;;;16.60;63.30;;;;;;5019643;28;20696;-68
2023/05/22 05:02:18;;;;;;;9.00;6.93;;;16.70;63.20;;;;;;5018527;28;20030;-67
2023/05/22 05:04:45;;;;;;;9.63;7.80;;;16.80;63.10;;;;;;5018613;28;20132;-67
2023/05/22 05:07:12;;;;;;;10.77;7.25;;;16.80;62.90;;;;;;5020294;28;20469;-66
2023/05/22 05:09:37;;;;;;;11.05;8.07;;;16.90;62.80;;;;;;5013458;28;20021;-67
2023/05/22 05:12:03;;;;;;;11.43;8.02;;;17.00;62.80;;;;;;5021033;28;20057;-66
2023/05/22 05:14:29;;;;;;;13.48;7.47;;;17.10;62.70;;;;;;5018933;28;20018;-67
2023/05/22 05:16:55;;;;;;;13.23;7.97;;;17.10;62.50;;;;;;5021538;28;20033;-67
2023/05/22 05:19:21;;;;;;;16.85;7.82;;;17.20;62.50;;;;;;5022060;28;20022;-68
2023/05/22 05:21:48;;;;;;;15.27;8.10;;;17.40;62.60;;;;;;5021906;28;20572;-67
2023/05/22 05:24:15;;;;;;;17.60;7.60;;;17.40;63.20;;;;;;5021799;28;20435;-67
2023/05/22 05:26:41;;;;;;;12.30;6.93;;;17.50;62.30;;;;;;5021576;28;20084;-69
2023/05/22 05:29:06;;;;;;;16.52;7.72;;;17.60;62.10;;;;;;5021145;28;20030;-68
2023/05/22 05:31:32;;;;;;;13.57;7.90;;;17.70;62.00;;;;;;5018434;28;20026;-67
2023/05/22 05:33:58;;;;;;;10.90;7.78;;;17.80;62.00;;;;;;5023524;28;20026;-67
2023/05/22 05:36:24;;;;;;;9.05;7.68;;;18.00;62.00;;;;;;5019086;28;20029;-67
2023/05/22 05:38:50;;;;;;;21.60;7.47;;;18.10;62.00;;;;;;5020609;28;20022;-68
2023/05/22 05:41:17;;;;;;;13.60;7.80;;;18.20;61.80;;;;;;4925364;28;20049;-67
2023/05/22 05:43:43;;;;;;;18.08;7.85;;;18.30;61.40;;;;;;5024611;28;20080;-68
2023/05/22 05:46:09;;;;;;;18.13;8.10;;;18.50;61.30;;;;;;5040331;28;20487;-67
2023/05/22 05:48:35;;;;;;;15.68;8.23;;;18.60;61.00;;;;;;5041956;28;20025;-68
2023/05/22 05:51:00;;;;;;;16.70;7.93;;;18.70;60.80;;;;;;5025341;28;20044;-68
2023/05/22 05:53:27;;;;;;;21.67;8.90;;;18.80;60.70;;;;;;5042458;28;20029;-68
2023/05/22 05:55:53;;;;;;;18.83;8.23;;;18.90;60.70;;;;;;5036892;28;20033;-67
2023/05/22 05:58:19;;;;;;;17.75;8.05;;;19.10;60.50;;;;;;5041880;28;20025;-67
2023/05/22 06:00:45;;;;;;;24.13;8.63;;;19.30;60.30;;;;;;5042905;28;20029;-67
2023/05/22 06:03:10;;;;;;;16.05;8.13;;;19.40;60.10;;;;;;5040729;28;20033;-68
2023/05/22 06:05:36;;;;;;;21.27;8.70;;;19.50;59.70;;;;;;5041422;28;20061;-68
2023/05/22 06:08:03;;;;;;;11.90;8.57;;;19.60;59.60;;;;;;5044909;28;20041;-68
2023/05/22 06:10:28;;;;;;;15.40;8.10;;;19.80;59.60;;;;;;5042812;28;20025;-68
2023/05/22 06:12:54;;;;;;;19.85;7.93;;;19.90;59.50;;;;;;5038564;28;20032;-68
2023/05/22 06:15:20;;;;;;;26.75;8.18;;;20.00;59.20;;;;;;5039919;28;20021;-68
2023/05/22 06:17:46;;;;;;;16.45;7.47;;;20.10;59.00;;;;;;5041101;28;20040;-69
2023/05/22 06:20:14;;;;;;;11.57;7.75;;;20.30;58.90;;;;;;5037276;28;20017;-68
2023/05/22 06:22:39;;;;;;;9.88;7.65;;;20.40;58.80;;;;;;5034907;28;20424;-69
2023/05/22 06:25:05;;;;;;;17.73;7.55;;;20.60;58.90;;;;;;5018596;28;20030;-68
2023/05/22 06:27:31;;;;;;;11.35;7.00;;;20.70;58.60;;;;;;5039435;28;20037;-68
2023/05/22 06:29:57;;;;;;;13.57;7.63;;;20.80;58.30;;;;;;5019501;28;20029;-67
2023/05/22 06:32:22;;;;;;;10.80;7.22;;;21.00;57.70;;;;;;5036285;28;20050;-68
2023/05/22 06:34:48;;;;;;;10.85;8.00;;;21.10;57.10;;;;;;5018908;28;20030;-68
2023/05/22 06:37:14;;;;;;;12.02;7.47;;;21.20;56.80;;;;;;5034255;28;20025;-68
2023/05/22 06:39:40;;;;;;;11.45;7.63;;;21.30;56.70;;;;;;5037923;28;20026;-68
2023/05/22 06:42:06;;;;;;;13.88;7.65;;;21.30;56.40;;;;;;5038632;28;20097;-68
2023/05/22 06:44:32;;;;;;;11.90;8.18;;;21.50;56.40;;;;;;5037964;28;20061;-69
2023/05/22 06:46:58;;;;;;;13.10;8.15;;;21.60;56.40;;;;;;5038656;28;20025;-68
2023/05/22 06:49:24;;;;;;;11.15;8.30;;;21.70;56.10;;;;;;5040329;28;20037;-69
2023/05/22 06:51:49;;;;;;;11.60;7.68;;;21.80;56.00;;;;;;5037598;28;20115;-69
2023/05/22 06:54:15;;;;;;;13.80;6.95;;;21.90;56.10;;;;;;5039926;28;20033;-69
2023/05/22 06:56:42;;;;;;;10.95;8.18;;;22.00;55.80;;;;;;5039040;28;20025;-67
2023/05/22 06:59:10;;;;;;;11.60;7.90;;;22.10;55.50;;;;;;5037413;28;20072;-68
2023/05/22 07:01:36;;;;;;;10.70;8.02;;;22.20;55.00;;;;;;5038929;28;20047;-68
2023/05/22 07:04:03;;;;;;;12.13;7.72;;;22.30;55.10;;;;;;5038022;28;20064;-67
2023/05/22 07:06:37;;;;;;;10.30;7.57;;;22.40;55.00;;;;;;5042622;28;20013;-69
2023/05/22 07:09:07;;;;;;;14.30;8.00;;;22.50;54.90;;;;;;5029844;28;20483;-68
2023/05/22 07:11:34;;;;;;;10.32;7.55;;;22.60;54.50;;;;;;5037290;28;20025;-68
2023/05/22 07:14:01;;;;;;;9.10;7.57;;;22.70;54.60;;;;;;5017189;28;20033;-68
2023/05/22 07:16:28;;;;;;;11.63;8.13;;;22.80;54.30;;;;;;5036805;28;20031;-68
2023/05/22 07:18:54;;;;;;;12.95;7.55;;;22.90;54.50;;;;;;5037344;28;20032;-69
2023/05/22 07:21:22;;;;;;;11.00;8.02;;;23.00;53.70;;;;;;5039493;28;20018;-68
2023/05/22 07:23:48;;;;;;;16.10;7.60;;;23.20;53.70;;;;;;5037679;28;20030;-68
2023/05/22 07:26:14;;;;;;;14.70;8.00;;;23.30;53.60;;;;;;5035327;28;20029;-68
2023/05/22 07:28:40;;;;;;;13.52;7.70;;;23.40;53.00;;;;;;5035710;28;20083;-68
2023/05/22 07:31:06;;;;;;;10.38;7.38;;;23.50;53.10;;;;;;5037421;28;20029;-68
2023/05/22 07:33:31;;;;;;;11.18;7.65;;;23.60;52.90;;;;;;5033631;28;20022;-68
2023/05/22 07:35:59;;;;;;;13.63;7.88;;;23.80;53.00;;;;;;5033743;28;20025;-69
2023/05/22 07:38:24;;;;;;;14.52;7.97;;;23.80;52.70;;;;;;5035221;28;20105;-69
2023/05/22 07:40:50;;;;;;;10.82;7.72;;;23.90;52.50;;;;;;5015761;28;20076;-68
2023/05/22 07:43:16;;;;;;;12.32;7.85;;;24.00;52.40;;;;;;5037389;28;20072;-69
2023/05/22 07:45:42;;;;;;;10.85;8.07;;;24.10;52.00;;;;;;5040395;28;20065;-69
2023/05/22 07:48:08;;;;;;;13.82;7.47;;;24.20;51.70;;;;;;5040265;28;20057;-68
2023/05/22 07:50:34;;;;;;;10.30;7.45;;;24.20;51.20;;;;;;5039009;28;20112;-68
2023/05/22 07:53:00;;;;;;;10.65;7.18;;;24.30;51.20;;;;;;5040426;28;20177;-68
2023/05/22 07:55:26;;;;;;;7.95;6.70;;;24.30;51.80;;;;;;5038619;28;20053;-68
2023/05/22 07:57:52;;;;;;;11.02;7.95;;;24.40;51.90;;;;;;5035908;28;20481;-69
2023/05/22 08:00:18;;;;;;;9.50;7.32;;;24.50;51.90;;;;;;5038894;28;20033;-69
2023/05/22 08:02:44;;;;;;;13.52;7.32;;;24.60;51.70;;;;;;5019229;28;20046;-69
2023/05/22 08:05:10;;;;;;;10.15;6.82;;;24.70;51.50;;;;;;5035781;28;20013;-67
2023/05/22 08:07:36;;;;;;;7.93;6.93;;;24.80;52.20;;;;;;5038436;28;20031;-68
2023/05/22 08:10:12;;;;;;;9.35;7.47;;;24.90;51.40;;;;;;5040053;28;20025;-69
2023/05/22 08:12:37;;;;;;;9.45;6.93;;;25.00;50.90;;;;;;5036254;28;20496;-68
2023/05/22 08:15:04;;;;;;;8.57;6.93;;;25.20;50.90;;;;;;5035761;28;20064;-69
2023/05/22 08:17:29;;;;;;;9.60;6.85;;;25.40;51.00;;;;;;5039326;28;20029;-68
2023/05/22 08:19:55;;;;;;;9.75;6.97;;;25.50;50.90;;;;;;5036946;28;20025;-68
2023/05/22 08:22:21;;;;;;;10.70;6.75;;;25.60;50.50;;;;;;5033496;28;20029;-69
2023/05/22 08:24:46;;;;;;;9.57;6.55;;;25.70;50.40;;;;;;5035035;28;20021;-68
2023/05/22 08:27:12;;;;;;;11.45;7.13;;;25.80;50.40;;;;;;5038834;28;20021;-67
2023/05/22 08:29:38;;;;;;;9.23;6.75;;;25.90;49.90;;;;;;5039441;28;20017;-69
2023/05/22 08:32:04;;;;;;;8.50;6.55;;;26.00;50.20;;;;;;5035852;28;20472;-68
2023/05/22 08:34:31;;;;;;;7.65;6.18;;;26.10;49.90;;;;;;5037044;28;20029;-69
2023/05/22 08:36:57;;;;;;;6.78;5.97;;;26.20;49.70;;;;;;5039719;28;20021;-70
2023/05/22 08:39:23;;;;;;;8.65;6.55;;;26.30;49.70;;;;;;5038438;28;20108;-69
2023/05/22 08:41:49;;;;;;;8.07;6.10;;;26.40;49.20;;;;;;5037739;28;20037;-68
2023/05/22 08:44:15;;;;;;;9.10;6.60;;;26.50;49.40;;;;;;5036691;28;20041;-69
2023/05/22 08:46:42;;;;;;;9.07;6.70;;;26.60;49.20;;;;;;5033650;28;20029;-68
2023/05/22 08:49:10;;;;;;;8.20;6.20;;;26.70;49.10;;;;;;5037611;28;20427;-69
2023/05/22 08:51:43;;;;;;;7.70;6.38;;;26.80;49.00;;;;;;5042537;28;20021;-68
2023/05/22 08:54:09;;;;;;;8.00;6.28;;;26.90;48.30;;;;;;5035437;28;20037;-68
2023/05/22 08:56:35;;;;;;;11.38;5.72;;;27.00;48.40;;;;;;5036449;28;20033;-68
2023/05/22 08:59:02;;;;;;;9.25;6.10;;;27.10;48.20;;;;;;5038768;28;20029;-70
2023/05/22 09:01:29;;;;;;;9.30;6.20;;;27.20;48.00;;;;;;5037518;28;20024;-70
2023/05/22 09:03:59;;;;;;;7.53;6.22;;;27.20;47.80;;;;;;5037557;28;20060;-70
2023/05/22 09:06:25;;;;;;;10.32;6.40;;;27.40;47.50;;;;;;5038209;28;20026;-69
2023/05/22 09:08:52;;;;;;;10.32;6.22;;;27.40;47.80;;;;;;5034451;28;20033;-68
2023/05/22 09:11:17;;;;;;;8.73;5.65;;;27.50;47.70;;;;;;5032135;28;20044;-69
2023/05/22 09:13:43;;;;;;;8.02;6.00;;;27.60;47.10;;;;;;5036685;28;20030;-68
2023/05/22 09:16:12;;;;;;;9.25;5.97;;;27.70;46.40;;;;;;5021379;28;20034;-68
2023/05/22 09:18:40;;;;;;;10.07;5.72;;;27.80;46.00;;;;;;5038488;28;20057;-67
2023/05/22 09:21:06;;;;;;;8.00;5.82;;;27.90;46.10;;;;;;5037527;28;20460;-68
2023/05/22 09:23:31;;;;;;;10.93;6.03;;;27.90;45.60;;;;;;5030845;28;20401;-69
2023/05/22 09:25:59;;;;;;;10.82;5.85;;;28.00;46.40;;;;;;5034898;28;20036;-68
2023/05/22 09:28:26;;;;;;;13.57;5.63;;;28.10;45.40;;;;;;5037973;28;20029;-68
2023/05/22 09:30:53;;;;;;;6.70;5.57;;;28.20;45.90;;;;;;5037299;28;20022;-69
2023/05/22 09:33:19;;;;;;;8.00;5.72;;;28.30;45.10;;;;;;5038045;28;20033;-68
2023/05/22 09:35:50;;;;;;;7.50;5.13;;;28.30;44.90;;;;;;5038861;28;20032;-68
2023/05/22 09:38:16;;;;;;;9.60;4.95;;;28.40;45.00;;;;;;5039014;28;21183;-67
2023/05/22 09:40:42;;;;;;;6.53;4.72;;;28.50;45.10;;;;;;5035893;28;20021;-68
2023/05/22 09:43:09;;;;;;;7.63;5.40;;;28.60;45.00;;;;;;5038265;28;20041;-68
2023/05/22 09:45:35;;;;;;;6.68;5.32;;;28.70;45.20;;;;;;5038255;28;20041;-67
2023/05/22 09:48:05;;;;;;;6.97;5.47;;;28.80;44.80;;;;;;5040242;28;20068;-68
2023/05/22 09:50:31;;;;;;;8.20;5.70;;;28.90;44.40;;;;;;5039380;28;20403;-67
2023/05/22 09:53:04;;;;;;;9.77;4.80;;;29.00;44.40;;;;;;5040206;28;20098;-68
2023/05/22 09:55:30;;;;;;;7.83;5.00;;;29.10;43.80;;;;;;5037164;28;20025;-68
2023/05/22 09:58:00;;;;;;;8.35;5.13;;;29.20;43.60;;;;;;5041207;28;20026;-68
2023/05/22 10:00:27;;;;;;;10.60;5.38;;;29.20;43.60;;;;;;5040680;28;20085;-69
2023/05/22 10:03:02;;;;;;;8.00;5.05;;;29.40;42.80;;;;;;5045136;28;20044;-67
2023/05/22 10:05:31;;;;;;;7.68;5.60;;;29.50;42.70;;;;;;5039677;28;20071;-68
2023/05/22 10:08:09;;;;;;;11.43;6.05;;;29.60;42.40;;;;;;5039334;28;20037;-69
2023/05/22 10:10:36;;;;;;;8.90;5.40;;;29.60;40.90;;;;;;5038429;28;20084;-67
2023/05/22 10:13:07;;;;;;;6.90;5.53;;;29.70;41.40;;;;;;5042688;28;20045;-69
2023/05/22 10:15:34;;;;;;;8.52;5.72;;;29.70;41.30;;;;;;5038589;28;20033;-67
2023/05/22 10:18:00;;;;;;;7.10;5.22;;;29.80;40.90;;;;;;5038757;28;20117;-67
2023/05/22 10:20:28;;;;;;;6.85;5.15;;;29.80;41.10;;;;;;5040175;28;20112;-69
2023/05/22 10:22:54;;;;;;;6.28;4.82;;;29.80;41.10;;;;;;5035996;28;20029;-68
2023/05/22 10:25:21;;;;;;;6.60;4.93;;;29.80;41.10;;;;;;5040665;28;20021;-68
2023/05/22 10:27:48;;;;;;;7.10;5.55;;;29.80;41.00;;;;;;5036847;28;20603;-68
2023/05/22 10:30:38;;;;;;;7.68;4.70;;;29.90;40.80;;;;;;5039832;28;20484;-68
2023/05/22 10:33:36;;;;;;;9.10;4.82;;;29.90;40.00;;;;;;5039176;28;20044;-68
2023/05/22 10:36:09;;;;;;;5.93;4.90;;;30.00;40.40;;;;;;5024781;28;20033;-69
2023/05/22 10:39:09;;;;;;;7.85;4.82;;;30.10;39.30;;;;;;5040830;28;20416;-69
2023/05/22 10:41:35;;;;;;;8.13;5.05;;;30.20;40.20;;;;;;5027140;28;20092;-68
2023/05/22 10:44:02;;;;;;;11.02;5.40;;;30.30;40.50;;;;;;5038556;28;20178;-68
2023/05/22 10:46:32;;;;;;;7.28;5.07;;;30.40;40.00;;;;;;5037848;28;20022;-68
2023/05/22 10:48:58;;;;;;;6.65;4.88;;;30.50;39.30;;;;;;5040682;28;20064;-68
2023/05/22 10:51:24;;;;;;;6.55;5.07;;;30.60;39.70;;;;;;5016540;28;20034;-68
2023/05/22 10:54:04;;;;;;;7.05;4.97;;;30.70;39.30;;;;;;5035008;28;20022;-68
2023/05/22 10:56:34;;;;;;;6.00;4.78;;;30.70;39.00;;;;;;5038074;28;20033;-69
2023/05/22 10:59:03;;;;;;;6.50;4.70;;;30.90;39.20;;;;;;5040885;28;20013;-69
2023/05/22 11:01:29;;;;;;;5.30;4.45;;;31.00;39.40;;;;;;5040663;28;20392;-68
2023/05/22 11:03:59;;;;;;;7.95;4.63;;;31.20;38.90;;;;;;5041395;28;20095;-68
2023/05/22 11:06:44;;;;;;;11.32;5.60;;;31.30;37.20;;;;;;5039820;28;20029;-69
2023/05/22 11:09:17;;;;;;;7.13;4.82;;;31.40;37.40;;;;;;5042604;28;20107;-68
2023/05/22 11:11:44;;;;;;;5.50;4.53;;;31.50;38.00;;;;;;5037730;28;20032;-68
2023/05/22 11:14:17;;;;;;;5.13;4.63;;;31.60;37.90;;;;;;5035816;28;20516;-69
2023/05/22 11:16:42;;;;;;;7.70;4.78;;;31.60;36.90;;;;;;5040813;28;20052;-68
2023/05/22 11:19:09;;;;;;;7.72;4.45;;;31.80;37.30;;;;;;5039932;28;20026;-68
2023/05/22 11:21:45;;;;;;;6.75;4.80;;;31.80;37.30;;;;;;5018901;28;20036;-68
2023/05/22 11:24:12;;;;;;;8.68;4.90;;;31.80;36.00;;;;;;5034294;28;20026;-68
2023/05/22 11:26:41;;;;;;;6.20;5.13;;;31.90;36.20;;;;;;5017387;28;20036;-68
2023/05/22 11:29:08;;;;;;;6.18;5.00;;;31.90;35.30;;;;;;5036328;28;20207;-69
2023/05/22 11:31:37;;;;;;;8.55;5.03;;;31.80;35.50;;;;;;5039534;28;20025;-68
2023/05/22 11:34:03;;;;;;;5.20;4.63;;;31.60;35.50;;;;;;5037291;28;20037;-69
2023/05/22 11:36:29;;;;;;;7.13;4.75;;;31.30;35.40;;;;;;5040978;28;20021;-68
2023/05/22 11:38:58;;;;;;;7.50;5.15;;;31.10;35.60;;;;;;5041455;28;20031;-68
2023/05/22 11:41:29;;;;;;;5.50;4.68;;;30.90;36.10;;;;;;5018067;28;20029;-69
2023/05/22 11:43:55;;;;;;;5.68;4.47;;;30.60;36.10;;;;;;5034593;28;20055;-68
2023/05/22 11:46:21;;;;;;;6.10;4.63;;;30.50;36.80;;;;;;5038648;28;20332;-70
2023/05/22 11:48:47;;;;;;;5.70;4.82;;;30.30;36.50;;;;;;5039122;28;20025;-69
2023/05/22 11:51:13;;;;;;;6.10;4.65;;;30.20;36.70;;;;;;5038947;28;20017;-69
2023/05/22 11:53:40;;;;;;;9.50;4.90;;;30.00;36.70;;;;;;5040636;28;20026;-69
2023/05/22 11:56:06;;;;;;;6.50;4.55;;;29.90;36.70;;;;;;5037949;28;20476;-68
2023/05/22 11:58:32;;;;;;;8.63;4.82;;;29.80;36.70;;;;;;5029688;28;20030;-68
2023/05/22 12:00:59;;;;;;;5.00;4.32;;;29.70;36.90;;;;;;5034024;28;20030;-68
2023/05/22 12:03:25;;;;;;;8.60;4.43;;;29.60;36.70;;;;;;5019848;28;20038;-69
2023/05/22 12:05:51;;;;;;;6.50;4.57;;;29.60;37.40;;;;;;5038556;28;20052;-69
2023/05/22 12:08:17;;;;;;;5.35;4.70;;;29.50;37.30;;;;;;5036822;28;20052;-68
2023/05/22 12:10:47;;;;;;;5.18;4.00;;;29.50;36.90;;;;;;5041456;28;20033;-68
2023/05/22 12:13:13;;;;;;;8.20;4.65;;;29.50;38.10;;;;;;5036022;28;20083;-68
2023/05/22 12:15:38;;;;;;;11.77;4.90;;;29.70;38.60;;;;;;5036580;28;20025;-69
2023/05/22 12:18:08;;;;;;;6.47;4.50;;;29.80;39.20;;;;;;5034506;28;20044;-69
2023/05/22 12:20:34;;;;;;;4.45;3.97;;;29.90;38.50;;;;;;5036131;28;20043;-69
2023/05/22 12:22:59;;;;;;;10.18;4.53;;;30.00;38.80;;;;;;5037347;28;20120;-69
2023/05/22 12:25:34;;;;;;;6.40;4.30;;;30.20;38.10;;;;;;5037636;28;20029;-69
2023/05/22 12:28:00;;;;;;;8.80;4.28;;;30.40;38.60;;;;;;5036327;28;20108;-68
2023/05/22 12:30:25;;;;;;;6.10;4.18;;;30.50;37.30;;;;;;5035939;28;20049;-68
2023/05/22 12:32:51;;;;;;;7.70;4.82;;;30.50;37.30;;;;;;5039790;28;20032;-69
2023/05/22 12:35:17;;;;;;;5.68;3.90;;;30.60;36.90;;;;;;5037813;28;20549;-69
2023/05/22 12:37:50;;;;;;;6.63;3.92;;;30.60;36.00;;;;;;5034337;28;20025;-69
2023/05/22 12:40:16;;;;;;;7.43;4.65;;;30.70;35.40;;;;;;5038636;28;20035;-69
2023/05/22 12:42:43;;;;;;;10.32;4.85;;;30.80;37.10;;;;;;5038058;28;20379;-69
2023/05/22 12:45:11;;;;;;;8.63;4.68;;;30.90;38.10;;;;;;5032800;28;20045;-68